Terminal Aerodrome Forecast
Issued by NWS

Home | Current Version | Previous Version | Text Only | Print | Product List | Glossary Off
Versions: 1 2 3 4 5 6 7 8 9 10 11 12 13 14 15 16 17 18 19

741
FTUS43 KBIS 011402 AAC
TAFMOT
TAF AMD
KMOT 011402Z 0114/0212 34007KT P6SM SCT003 OVC012
      TEMPO 0114/0116 6SM -FZDZ BR BKN003 OVC012
     FM011600 35004KT P6SM OVC006
     FM011900 01004KT P6SM OVC008=

USA.gov is the U.S. government's official web portal to all federal, state and local government web resources and services.